yellowpageskenya.com alexa rank chart, yellowpageskenya.com alexa rank daily changes

yellowpageskenya.com alexa rank chart, yellowpageskenya.com alexa rank daily changes

yellowpageskenya.com
Actual rank:
691 717

RANK HISTORY

Date Rank Diff
2017/05/26 691 717 -2 364
2017/05/25 694 081 -6 869
2017/05/24 700 950 -17 938
2017/05/23 718 888 +10 261
2017/05/22 708 627 +4 694
2017/05/21 703 933 -6 942
2017/05/20 710 875 -26 772
2017/05/19 737 647 -15 312
2017/05/18 752 959 -15 808
2017/05/17 768 767 +14 981
2017/05/16 753 786 -18 666
2017/05/15 772 452 +6 249
2017/05/14 766 203 -19 458
2017/05/13 785 661 +3 130
2017/05/12 782 531 -18 963
2017/05/11 801 494 +5 505
2017/05/10 795 989 -122 590
2017/05/09 918 579 +11 391
2017/05/08 907 188 +12 936
2017/05/07 894 252 +26 491
2017/05/06 867 761 +13 738
2017/05/05 854 023 -11 202
2017/05/04 865 225 -8 096
2017/05/03 873 321 +13 730
2017/05/02 859 591 +5 204
2017/05/01 854 387 -2 161
2017/04/30 856 548 +25 884
2017/04/29 830 664 -65 728
2017/04/28 896 392 -22 068
2017/04/27 918 460 +14 772
2017/04/26 903 688 -11 603
2017/04/25 915 291 +4 789
2017/04/24 910 502 +58 432
2017/04/23 852 070 +16 521
2017/04/22 835 549 -16 379
2017/04/21 851 928 -22 197
2017/04/20 874 125 +13 436
2017/04/19 860 689 +17 797
2017/04/18 842 892 +34 405
2017/04/17 808 487 +4 735
2017/04/16 803 752 +39 701
2017/04/15 764 051 +63 000
2017/04/14 701 051 -16 233
2017/04/13 717 284 -13 369
2017/04/12 730 653 +34 433
2017/04/11 696 220 +2 294
2017/04/10 693 926 +24 785
2017/04/09 669 141 +19 418
2017/04/08 649 723 +10 159
2017/04/07 639 564 -8 290
2017/04/06 647 854 -10 572
2017/04/05 658 426 +11 357
2017/04/04 647 069 +8 650
2017/04/03 638 419 +13 234
2017/04/02 625 185 +10 354
2017/04/01 614 831 +5 392
2017/03/31 609 439 +14 330
2017/03/30 595 109 -1 939
2017/03/29 597 048 -2 784
2017/03/28 599 832 +545
2017/03/27 599 287

WIDGET FOR YOUR SITE

DOMAINS WITH THE NEAREST RANK

Domain Rank
kinetic-apparel.com 691 712
dittynewsticker.com 691 713
riv.ca 691 714
mobiles-actus.com 691 715
xpand-addons.com 691 716
yellowpageskenya.com 691 717
softpaws.com 691 718
spointdesign.com 691 719
anvelope-steffco.ro 691 720
style2designer.com 691 721
obetone.com 691 722

DOMAINS WITH THE NEAREST RANK BY TLD .com

Domain Rank
alexaskillstore.com 691 711
kinetic-apparel.com 691 712
dittynewsticker.com 691 713
mobiles-actus.com 691 715
xpand-addons.com 691 716
yellowpageskenya.com 691 717
softpaws.com 691 718
spointdesign.com 691 719
style2designer.com 691 721
obetone.com 691 722
5gbfreeforum.com 691 724